sensor_id;sensor_type;location;lat;lon;timestamp;temperature;humidity
58809;DHT22;44579;51.672;7.834;2024-03-23T00:53:40;8.50;91.20
58809;DHT22;44579;51.672;7.834;2024-03-23T00:56:06;8.40;91.00
58809;DHT22;44579;51.672;7.834;2024-03-23T00:58:32;8.50;91.10
58809;DHT22;44579;51.672;7.834;2024-03-23T01:00:58;8.50;91.40
58809;DHT22;44579;51.672;7.834;2024-03-23T01:03:24;8.60;90.80
58809;DHT22;44579;51.672;7.834;2024-03-23T01:05:49;8.70;90.60
58809;DHT22;44579;51.672;7.834;2024-03-23T01:08:15;8.70;90.50
58809;DHT22;44579;51.672;7.834;2024-03-23T01:10:41;8.70;90.50
58809;DHT22;44579;51.672;7.834;2024-03-23T01:13:07;8.70;90.40
58809;DHT22;44579;51.672;7.834;2024-03-23T01:15:33;8.70;90.20
58809;DHT22;44579;51.672;7.834;2024-03-23T01:17:59;8.70;90.40
58809;DHT22;44579;51.672;7.834;2024-03-23T01:20:25;8.60;90.20
58809;DHT22;44579;51.672;7.834;2024-03-23T01:22:51;8.70;90.30
58809;DHT22;44579;51.672;7.834;2024-03-23T01:25:16;8.70;90.30
58809;DHT22;44579;51.672;7.834;2024-03-23T01:27:42;8.70;90.20
58809;DHT22;44579;51.672;7.834;2024-03-23T01:30:08;8.70;90.20
58809;DHT22;44579;51.672;7.834;2024-03-23T01:32:34;8.60;90.20
58809;DHT22;44579;51.672;7.834;2024-03-23T01:35:00;8.60;90.40
58809;DHT22;44579;51.672;7.834;2024-03-23T01:37:25;8.60;90.30
58809;DHT22;44579;51.672;7.834;2024-03-23T01:39:52;8.60;90.10
58809;DHT22;44579;51.672;7.834;2024-03-23T01:42:17;8.60;90.20
58809;DHT22;44579;51.672;7.834;2024-03-23T01:44:43;8.60;90.20
58809;DHT22;44579;51.672;7.834;2024-03-23T01:47:09;8.60;90.30
58809;DHT22;44579;51.672;7.834;2024-03-23T01:49:35;8.60;90.20
58809;DHT22;44579;51.672;7.834;2024-03-23T01:52:01;8.60;90.10
58809;DHT22;44579;51.672;7.834;2024-03-23T01:54:27;8.60;90.00
58809;DHT22;44579;51.672;7.834;2024-03-23T01:56:54;8.70;89.90
58809;DHT22;44579;51.672;7.834;2024-03-23T01:59:21;8.70;89.80
58809;DHT22;44579;51.672;7.834;2024-03-23T02:01:47;8.60;89.70
58809;DHT22;44579;51.672;7.834;2024-03-23T02:04:13;8.60;89.60
58809;DHT22;44579;51.672;7.834;2024-03-23T02:06:39;8.60;89.80
58809;DHT22;44579;51.672;7.834;2024-03-23T02:09:05;8.60;89.60
58809;DHT22;44579;51.672;7.834;2024-03-23T02:11:31;8.70;89.40
58809;DHT22;44579;51.672;7.834;2024-03-23T02:13:57;8.70;89.40
58809;DHT22;44579;51.672;7.834;2024-03-23T02:16:23;8.70;89.30
58809;DHT22;44579;51.672;7.834;2024-03-23T02:18:50;8.70;89.30
58809;DHT22;44579;51.672;7.834;2024-03-23T02:21:16;8.60;89.60
58809;DHT22;44579;51.672;7.834;2024-03-23T02:23:42;8.50;89.50
58809;DHT22;44579;51.672;7.834;2024-03-23T02:26:08;8.60;89.40
58809;DHT22;44579;51.672;7.834;2024-03-23T02:28:34;8.70;89.20
58809;DHT22;44579;51.672;7.834;2024-03-23T02:30:59;8.60;89.00
58809;DHT22;44579;51.672;7.834;2024-03-23T02:33:26;8.70;88.90
58809;DHT22;44579;51.672;7.834;2024-03-23T02:35:55;8.70;88.80
58809;DHT22;44579;51.672;7.834;2024-03-23T02:38:21;8.70;88.60
58809;DHT22;44579;51.672;7.834;2024-03-23T02:40:47;8.80;88.30
58809;DHT22;44579;51.672;7.834;2024-03-23T02:43:13;8.80;88.20
58809;DHT22;44579;51.672;7.834;2024-03-23T02:45:39;8.90;88.10
58809;DHT22;44579;51.672;7.834;2024-03-23T02:48:04;8.90;87.90
58809;DHT22;44579;51.672;7.834;2024-03-23T02:50:30;8.90;87.70
58809;DHT22;44579;51.672;7.834;2024-03-23T02:52:56;8.90;87.70
58809;DHT22;44579;51.672;7.834;2024-03-23T02:55:22;8.90;87.70
58809;DHT22;44579;51.672;7.834;2024-03-23T02:57:48;8.90;87.50
58809;DHT22;44579;51.672;7.834;2024-03-23T03:00:14;9.00;87.50
58809;DHT22;44579;51.672;7.834;2024-03-23T03:02:39;9.00;87.40
58809;DHT22;44579;51.672;7.834;2024-03-23T03:05:06;9.00;87.20
58809;DHT22;44579;51.672;7.834;2024-03-23T03:07:32;9.00;87.20
58809;DHT22;44579;51.672;7.834;2024-03-23T03:09:58;9.00;87.20
58809;DHT22;44579;51.672;7.834;2024-03-23T03:12:23;9.00;87.30
58809;DHT22;44579;51.672;7.834;2024-03-23T03:14:49;8.90;87.20
58809;DHT22;44579;51.672;7.834;2024-03-23T03:17:15;8.90;87.10
58809;DHT22;44579;51.672;7.834;2024-03-23T03:19:41;8.80;87.30
58809;DHT22;44579;51.672;7.834;2024-03-23T03:22:07;8.90;87.50
58809;DHT22;44579;51.672;7.834;2024-03-23T03:24:32;8.80;87.40
58809;DHT22;44579;51.672;7.834;2024-03-23T03:26:58;8.80;87.50
58809;DHT22;44579;51.672;7.834;2024-03-23T03:29:24;8.70;87.50
58809;DHT22;44579;51.672;7.834;2024-03-23T03:31:50;8.60;88.10
58809;DHT22;44579;51.672;7.834;2024-03-23T03:34:16;8.40;88.80
58809;DHT22;44579;51.672;7.834;2024-03-23T03:36:42;8.30;89.00
58809;DHT22;44579;51.672;7.834;2024-03-23T03:39:07;8.30;89.20
58809;DHT22;44579;51.672;7.834;2024-03-23T03:41:33;8.30;89.20
58809;DHT22;44579;51.672;7.834;2024-03-23T03:43:59;8.30;89.20
58809;DHT22;44579;51.672;7.834;2024-03-23T03:46:28;8.20;89.00
58809;DHT22;44579;51.672;7.834;2024-03-23T03:48:54;8.20;89.20
58809;DHT22;44579;51.672;7.834;2024-03-23T03:51:19;8.20;89.30
58809;DHT22;44579;51.672;7.834;2024-03-23T03:53:45;8.10;89.20
58809;DHT22;44579;51.672;7.834;2024-03-23T03:56:11;8.10;89.20
58809;DHT22;44579;51.672;7.834;2024-03-23T03:58:37;8.20;88.90
58809;DHT22;44579;51.672;7.834;2024-03-23T04:01:03;8.30;88.60
58809;DHT22;44579;51.672;7.834;2024-03-23T04:03:29;8.30;88.40
58809;DHT22;44579;51.672;7.834;2024-03-23T04:05:54;8.30;88.20
58809;DHT22;44579;51.672;7.834;2024-03-23T04:08:21;8.40;88.10
58809;DHT22;44579;51.672;7.834;2024-03-23T04:10:47;8.40;88.10
58809;DHT22;44579;51.672;7.834;2024-03-23T04:13:13;8.40;88.10
58809;DHT22;44579;51.672;7.834;2024-03-23T04:15:39;8.40;88.00
58809;DHT22;44579;51.672;7.834;2024-03-23T04:18:05;8.50;87.90
58809;DHT22;44579;51.672;7.834;2024-03-23T04:20:31;8.50;87.80
58809;DHT22;44579;51.672;7.834;2024-03-23T04:23:00;8.50;87.70
58809;DHT22;44579;51.672;7.834;2024-03-23T04:25:26;8.50;87.50
58809;DHT22;44579;51.672;7.834;2024-03-23T04:27:52;8.50;87.40
58809;DHT22;44579;51.672;7.834;2024-03-23T04:30:18;8.50;87.40
58809;DHT22;44579;51.672;7.834;2024-03-23T04:32:45;8.50;87.30
58809;DHT22;44579;51.672;7.834;2024-03-23T04:35:11;8.50;87.50
58809;DHT22;44579;51.672;7.834;2024-03-23T04:37:37;8.50;87.40
58809;DHT22;44579;51.672;7.834;2024-03-23T04:40:03;8.50;87.30
58809;DHT22;44579;51.672;7.834;2024-03-23T04:42:29;8.50;87.20
58809;DHT22;44579;51.672;7.834;2024-03-23T04:44:55;8.50;87.20
58809;DHT22;44579;51.672;7.834;2024-03-23T04:47:21;8.50;87.10
58809;DHT22;44579;51.672;7.834;2024-03-23T04:49:47;8.60;87.10
58809;DHT22;44579;51.672;7.834;2024-03-23T04:52:13;8.50;86.90
58809;DHT22;44579;51.672;7.834;2024-03-23T04:54:39;8.50;87.00
58809;DHT22;44579;51.672;7.834;2024-03-23T04:57:08;8.50;87.00
58809;DHT22;44579;51.672;7.834;2024-03-23T04:59:34;8.50;87.20
58809;DHT22;44579;51.672;7.834;2024-03-23T05:02:00;8.50;87.20
58809;DHT22;44579;51.672;7.834;2024-03-23T05:04:26;8.50;87.20
58809;DHT22;44579;51.672;7.834;2024-03-23T05:06:51;8.50;87.20
58809;DHT22;44579;51.672;7.834;2024-03-23T05:09:17;8.40;87.00
58809;DHT22;44579;51.672;7.834;2024-03-23T05:11:43;8.40;87.00
58809;DHT22;44579;51.672;7.834;2024-03-23T05:14:09;8.40;87.00
58809;DHT22;44579;51.672;7.834;2024-03-23T05:16:35;8.40;87.00
58809;DHT22;44579;51.672;7.834;2024-03-23T05:19:00;8.40;87.00
58809;DHT22;44579;51.672;7.834;2024-03-23T05:21:27;8.40;87.00
58809;DHT22;44579;51.672;7.834;2024-03-23T05:23:54;8.40;87.00
58809;DHT22;44579;51.672;7.834;2024-03-23T05:26:20;8.30;87.00
58809;DHT22;44579;51.672;7.834;2024-03-23T05:28:45;8.30;87.00
58809;DHT22;44579;51.672;7.834;2024-03-23T05:31:11;8.30;87.10
58809;DHT22;44579;51.672;7.834;2024-03-23T05:33:37;8.20;87.10
58809;DHT22;44579;51.672;7.834;2024-03-23T05:36:06;8.20;87.10
58809;DHT22;44579;51.672;7.834;2024-03-23T05:38:36;8.20;87.10
58809;DHT22;44579;51.672;7.834;2024-03-23T05:41:02;8.20;87.10
58809;DHT22;44579;51.672;7.834;2024-03-23T05:43:28;8.20;87.10
58809;DHT22;44579;51.672;7.834;2024-03-23T05:45:54;8.20;87.20
58809;DHT22;44579;51.672;7.834;2024-03-23T05:48:20;8.20;87.20
58809;DHT22;44579;51.672;7.834;2024-03-23T05:50:47;8.20;87.10
58809;DHT22;44579;51.672;7.834;2024-03-23T05:53:12;8.20;87.10
58809;DHT22;44579;51.672;7.834;2024-03-23T05:55:38;8.10;87.10
58809;DHT22;44579;51.672;7.834;2024-03-23T05:58:04;8.10;87.20
58809;DHT22;44579;51.672;7.834;2024-03-23T06:00:30;8.10;87.20
58809;DHT22;44579;51.672;7.834;2024-03-23T06:02:56;8.10;87.40
58809;DHT22;44579;51.672;7.834;2024-03-23T06:05:23;8.10;87.50
58809;DHT22;44579;51.672;7.834;2024-03-23T06:07:49;8.00;87.50
58809;DHT22;44579;51.672;7.834;2024-03-23T06:10:15;8.00;87.60
58809;DHT22;44579;51.672;7.834;2024-03-23T06:12:41;8.00;87.60
58809;DHT22;44579;51.672;7.834;2024-03-23T06:15:07;8.00;87.60
58809;DHT22;44579;51.672;7.834;2024-03-23T06:17:36;8.00;87.60
58809;DHT22;44579;51.672;7.834;2024-03-23T06:20:02;8.00;87.70
58809;DHT22;44579;51.672;7.834;2024-03-23T06:22:28;8.00;87.70
58809;DHT22;44579;51.672;7.834;2024-03-23T06:24:54;8.10;87.70
58809;DHT22;44579;51.672;7.834;2024-03-23T06:27:20;8.10;87.60
58809;DHT22;44579;51.672;7.834;2024-03-23T06:29:46;8.10;87.60
58809;DHT22;44579;51.672;7.834;2024-03-23T06:32:12;8.10;87.60
58809;DHT22;44579;51.672;7.834;2024-03-23T06:34:38;8.10;87.60
58809;DHT22;44579;51.672;7.834;2024-03-23T06:37:06;8.20;87.70
58809;DHT22;44579;51.672;7.834;2024-03-23T06:39:32;8.20;87.60
58809;DHT22;44579;51.672;7.834;2024-03-23T06:41:58;8.30;87.70
58809;DHT22;44579;51.672;7.834;2024-03-23T06:44:24;8.30;87.60
58809;DHT22;44579;51.672;7.834;2024-03-23T06:46:50;8.30;87.60
58809;DHT22;44579;51.672;7.834;2024-03-23T06:49:16;8.30;87.40
58809;DHT22;44579;51.672;7.834;2024-03-23T06:51:42;8.40;87.50
58809;DHT22;44579;51.672;7.834;2024-03-23T06:54:07;8.30;87.60
58809;DHT22;44579;51.672;7.834;2024-03-23T06:56:33;8.30;87.60
58809;DHT22;44579;51.672;7.834;2024-03-23T06:58:59;8.20;87.80
58809;DHT22;44579;51.672;7.834;2024-03-23T07:01:25;8.20;87.90
58809;DHT22;44579;51.672;7.834;2024-03-23T07:03:51;8.20;88.00
58809;DHT22;44579;51.672;7.834;2024-03-23T07:06:17;8.20;88.10
58809;DHT22;44579;51.672;7.834;2024-03-23T07:08:42;8.30;88.10
58809;DHT22;44579;51.672;7.834;2024-03-23T07:11:08;8.30;88.20
58809;DHT22;44579;51.672;7.834;2024-03-23T07:13:34;8.30;88.40
58809;DHT22;44579;51.672;7.834;2024-03-23T07:16:00;8.30;89.30
58809;DHT22;44579;51.672;7.834;2024-03-23T07:18:26;8.40;88.60
58809;DHT22;44579;51.672;7.834;2024-03-23T07:20:52;8.50;88.70
58809;DHT22;44579;51.672;7.834;2024-03-23T07:23:18;8.50;88.50
58809;DHT22;44579;51.672;7.834;2024-03-23T07:25:44;8.70;88.40
58809;DHT22;44579;51.672;7.834;2024-03-23T07:28:10;8.80;88.40
58809;DHT22;44579;51.672;7.834;2024-03-23T07:30:38;8.90;88.30
58809;DHT22;44579;51.672;7.834;2024-03-23T07:33:04;9.00;88.40
58809;DHT22;44579;51.672;7.834;2024-03-23T07:35:30;9.00;88.50
58809;DHT22;44579;51.672;7.834;2024-03-23T07:37:55;9.00;88.80
58809;DHT22;44579;51.672;7.834;2024-03-23T07:40:21;9.10;89.00
58809;DHT22;44579;51.672;7.834;2024-03-23T07:42:47;9.10;89.20
58809;DHT22;44579;51.672;7.834;2024-03-23T07:45:13;9.00;89.40
58809;DHT22;44579;51.672;7.834;2024-03-23T07:47:39;9.00;89.60
58809;DHT22;44579;51.672;7.834;2024-03-23T07:50:06;9.00;89.70
58809;DHT22;44579;51.672;7.834;2024-03-23T07:52:32;9.00;89.70
58809;DHT22;44579;51.672;7.834;2024-03-23T07:54:58;9.00;90.00
58809;DHT22;44579;51.672;7.834;2024-03-23T07:57:24;9.00;90.10
58809;DHT22;44579;51.672;7.834;2024-03-23T07:59:50;9.00;90.10
58809;DHT22;44579;51.672;7.834;2024-03-23T08:02:16;9.00;90.10
58809;DHT22;44579;51.672;7.834;2024-03-23T08:04:42;9.00;90.10
58809;DHT22;44579;51.672;7.834;2024-03-23T08:07:08;9.00;90.10
58809;DHT22;44579;51.672;7.834;2024-03-23T08:09:34;8.90;90.10
58809;DHT22;44579;51.672;7.834;2024-03-23T08:12:00;8.90;90.10
58809;DHT22;44579;51.672;7.834;2024-03-23T08:14:27;8.90;90.10
58809;DHT22;44579;51.672;7.834;2024-03-23T08:16:54;9.00;90.10
58809;DHT22;44579;51.672;7.834;2024-03-23T08:19:19;9.00;90.00
58809;DHT22;44579;51.672;7.834;2024-03-23T08:21:45;9.10;90.00
58809;DHT22;44579;51.672;7.834;2024-03-23T08:24:11;9.10;89.80
58809;DHT22;44579;51.672;7.834;2024-03-23T08:26:37;9.20;90.30
58809;DHT22;44579;51.672;7.834;2024-03-23T08:29:03;9.20;90.00
58809;DHT22;44579;51.672;7.834;2024-03-23T08:31:29;9.30;90.00
58809;DHT22;44579;51.672;7.834;2024-03-23T08:33:55;9.30;90.00
58809;DHT22;44579;51.672;7.834;2024-03-23T08:36:21;9.40;90.10
58809;DHT22;44579;51.672;7.834;2024-03-23T08:38:47;9.40;90.20
58809;DHT22;44579;51.672;7.834;2024-03-23T08:41:16;9.50;90.20
58809;DHT22;44579;51.672;7.834;2024-03-23T08:43:41;9.40;90.10
58809;DHT22;44579;51.672;7.834;2024-03-23T08:46:11;9.40;90.20
58809;DHT22;44579;51.672;7.834;2024-03-23T08:48:38;9.40;90.20
58809;DHT22;44579;51.672;7.834;2024-03-23T08:51:04;9.40;90.20
58809;DHT22;44579;51.672;7.834;2024-03-23T08:53:31;9.40;90.20
58809;DHT22;44579;51.672;7.834;2024-03-23T08:55:57;9.40;90.20
58809;DHT22;44579;51.672;7.834;2024-03-23T08:58:23;9.40;90.30
58809;DHT22;44579;51.672;7.834;2024-03-23T09:00:50;9.40;90.40
58809;DHT22;44579;51.672;7.834;2024-03-23T09:03:16;9.50;90.50
58809;DHT22;44579;51.672;7.834;2024-03-23T09:05:42;9.50;90.60
58809;DHT22;44579;51.672;7.834;2024-03-23T09:08:08;9.60;90.70
58809;DHT22;44579;51.672;7.834;2024-03-23T09:10:41;9.80;90.70
58809;DHT22;44579;51.672;7.834;2024-03-23T09:13:07;10.10;90.60
58809;DHT22;44579;51.672;7.834;2024-03-23T09:15:34;10.20;90.70
58809;DHT22;44579;51.672;7.834;2024-03-23T09:18:04;10.40;90.80
58809;DHT22;44579;51.672;7.834;2024-03-23T09:20:34;10.40;90.70
58809;DHT22;44579;51.672;7.834;2024-03-23T09:23:00;10.40;90.50
58809;DHT22;44579;51.672;7.834;2024-03-23T09:25:26;10.20;90.60
58809;DHT22;44579;51.672;7.834;2024-03-23T09:27:51;10.10;90.80
58809;DHT22;44579;51.672;7.834;2024-03-23T09:30:17;10.10;90.90
58809;DHT22;44579;51.672;7.834;2024-03-23T09:32:44;10.10;90.90
58809;DHT22;44579;51.672;7.834;2024-03-23T09:35:10;10.20;91.10
58809;DHT22;44579;51.672;7.834;2024-03-23T09:37:36;10.20;90.90
58809;DHT22;44579;51.672;7.834;2024-03-23T09:40:02;10.20;91.00
58809;DHT22;44579;51.672;7.834;2024-03-23T09:42:28;10.30;91.30
58809;DHT22;44579;51.672;7.834;2024-03-23T09:44:56;10.40;91.50
58809;DHT22;44579;51.672;7.834;2024-03-23T09:47:22;10.70;91.30
58809;DHT22;44579;51.672;7.834;2024-03-23T09:49:49;10.80;91.30
58809;DHT22;44579;51.672;7.834;2024-03-23T09:52:15;10.90;91.70
58809;DHT22;44579;51.672;7.834;2024-03-23T09:54:40;10.90;92.00
58809;DHT22;44579;51.672;7.834;2024-03-23T09:57:06;10.90;91.90
58809;DHT22;44579;51.672;7.834;2024-03-23T09:59:33;11.00;92.20
58809;DHT22;44579;51.672;7.834;2024-03-23T10:02:00;11.00;92.10
58809;DHT22;44579;51.672;7.834;2024-03-23T10:04:39;11.00;92.10
58809;DHT22;44579;51.672;7.834;2024-03-23T10:07:12;11.10;92.20
58809;DHT22;44579;51.672;7.834;2024-03-23T10:09:38;11.10;92.10
58809;DHT22;44579;51.672;7.834;2024-03-23T10:12:08;11.00;92.10
58809;DHT22;44579;51.672;7.834;2024-03-23T10:14:34;10.90;92.00
58809;DHT22;44579;51.672;7.834;2024-03-23T10:19:46;10.60;91.50
58809;DHT22;44579;51.672;7.834;2024-03-23T10:22:14;10.40;92.10
58809;DHT22;44579;51.672;7.834;2024-03-23T10:24:41;10.30;91.70
58809;DHT22;44579;51.672;7.834;2024-03-23T10:27:07;10.20;91.60
58809;DHT22;44579;51.672;7.834;2024-03-23T10:29:33;10.10;91.60
58809;DHT22;44579;51.672;7.834;2024-03-23T10:32:12;10.10;91.80
58809;DHT22;44579;51.672;7.834;2024-03-23T10:34:39;10.20;92.00
58809;DHT22;44579;51.672;7.834;2024-03-23T10:37:05;10.40;92.00
58809;DHT22;44579;51.672;7.834;2024-03-23T10:39:35;10.60;91.90
58809;DHT22;44579;51.672;7.834;2024-03-23T10:42:04;10.70;92.20
58809;DHT22;44579;51.672;7.834;2024-03-23T10:44:31;10.60;91.50
58809;DHT22;44579;51.672;7.834;2024-03-23T10:47:01;10.60;91.50
58809;DHT22;44579;51.672;7.834;2024-03-23T10:49:28;10.50;91.50
58809;DHT22;44579;51.672;7.834;2024-03-23T10:51:56;10.50;91.30
58809;DHT22;44579;51.672;7.834;2024-03-23T10:54:22;10.50;91.20
58809;DHT22;44579;51.672;7.834;2024-03-23T10:56:50;10.60;91.10
58809;DHT22;44579;51.672;7.834;2024-03-23T10:59:18;10.70;90.80
58809;DHT22;44579;51.672;7.834;2024-03-23T11:01:53;10.80;90.60
58809;DHT22;44579;51.672;7.834;2024-03-23T11:04:30;10.80;90.60
58809;DHT22;44579;51.672;7.834;2024-03-23T11:06:56;10.90;90.40
58809;DHT22;44579;51.672;7.834;2024-03-23T11:09:40;10.80;90.30
58809;DHT22;44579;51.672;7.834;2024-03-23T11:14:45;10.70;88.90
58809;DHT22;44579;51.672;7.834;2024-03-23T11:17:11;10.70;88.60
58809;DHT22;44579;51.672;7.834;2024-03-23T11:19:37;10.70;88.70
58809;DHT22;44579;51.672;7.834;2024-03-23T11:22:04;10.70;88.70
58809;DHT22;44579;51.672;7.834;2024-03-23T11:24:31;10.80;88.90
58809;DHT22;44579;51.672;7.834;2024-03-23T11:26:57;10.80;88.70
58809;DHT22;44579;51.672;7.834;2024-03-23T11:29:26;10.80;88.40
58809;DHT22;44579;51.672;7.834;2024-03-23T11:31:52;10.70;88.10
58809;DHT22;44579;51.672;7.834;2024-03-23T11:34:21;10.80;87.90
58809;DHT22;44579;51.672;7.834;2024-03-23T11:36:48;10.70;87.30
58809;DHT22;44579;51.672;7.834;2024-03-23T11:39:16;10.70;86.10
58809;DHT22;44579;51.672;7.834;2024-03-23T11:44:21;10.70;85.90
58809;DHT22;44579;51.672;7.834;2024-03-23T11:46:50;10.70;86.10
58809;DHT22;44579;51.672;7.834;2024-03-23T11:51:48;10.60;85.20
58809;DHT22;44579;51.672;7.834;2024-03-23T11:54:14;10.60;85.00
58809;DHT22;44579;51.672;7.834;2024-03-23T11:56:40;10.50;85.30
58809;DHT22;44579;51.672;7.834;2024-03-23T11:59:06;10.20;83.40
58809;DHT22;44579;51.672;7.834;2024-03-23T12:01:32;10.00;83.00
58809;DHT22;44579;51.672;7.834;2024-03-23T12:03:58;9.60;82.40
58809;DHT22;44579;51.672;7.834;2024-03-23T12:06:24;9.30;82.30
58809;DHT22;44579;51.672;7.834;2024-03-23T12:08:51;9.20;82.50
58809;DHT22;44579;51.672;7.834;2024-03-23T12:11:17;9.20;82.50
58809;DHT22;44579;51.672;7.834;2024-03-23T12:13:43;9.20;82.40
58809;DHT22;44579;51.672;7.834;2024-03-23T12:18:41;9.40;83.40
58809;DHT22;44579;51.672;7.834;2024-03-23T12:21:07;9.50;82.30
58809;DHT22;44579;51.672;7.834;2024-03-23T12:23:33;9.60;82.20
58809;DHT22;44579;51.672;7.834;2024-03-23T12:25:59;9.50;82.10
58809;DHT22;44579;51.672;7.834;2024-03-23T12:28:25;9.60;81.70
58809;DHT22;44579;51.672;7.834;2024-03-23T12:30:51;9.60;81.70
58809;DHT22;44579;51.672;7.834;2024-03-23T12:33:20;9.70;81.60
58809;DHT22;44579;51.672;7.834;2024-03-23T12:35:52;9.80;81.70
58809;DHT22;44579;51.672;7.834;2024-03-23T12:38:19;9.90;81.30
58809;DHT22;44579;51.672;7.834;2024-03-23T12:40:48;10.10;81.30
58809;DHT22;44579;51.672;7.834;2024-03-23T12:43:15;10.10;81.10
58809;DHT22;44579;51.672;7.834;2024-03-23T12:45:41;10.20;81.20
58809;DHT22;44579;51.672;7.834;2024-03-23T12:48:07;10.20;81.20
58809;DHT22;44579;51.672;7.834;2024-03-23T12:50:33;10.30;81.40
58809;DHT22;44579;51.672;7.834;2024-03-23T12:52:59;10.50;81.50
58809;DHT22;44579;51.672;7.834;2024-03-23T12:55:26;10.60;81.30
58809;DHT22;44579;51.672;7.834;2024-03-23T12:57:51;10.80;81.30
58809;DHT22;44579;51.672;7.834;2024-03-23T13:00:17;10.90;81.40
58809;DHT22;44579;51.672;7.834;2024-03-23T13:02:44;10.90;81.30
58809;DHT22;44579;51.672;7.834;2024-03-23T13:05:10;10.90;81.40
58809;DHT22;44579;51.672;7.834;2024-03-23T13:07:35;11.00;81.20
58809;DHT22;44579;51.672;7.834;2024-03-23T13:10:03;10.90;81.20
58809;DHT22;44579;51.672;7.834;2024-03-23T13:12:29;10.90;81.50
58809;DHT22;44579;51.672;7.834;2024-03-23T13:14:56;10.90;82.20
58809;DHT22;44579;51.672;7.834;2024-03-23T13:17:22;10.80;80.90
58809;DHT22;44579;51.672;7.834;2024-03-23T13:19:47;10.70;80.60
58809;DHT22;44579;51.672;7.834;2024-03-23T13:22:13;10.50;80.10
58809;DHT22;44579;51.672;7.834;2024-03-23T13:24:42;10.10;79.60
58809;DHT22;44579;51.672;7.834;2024-03-23T13:27:08;9.80;79.50
58809;DHT22;44579;51.672;7.834;2024-03-23T13:29:36;9.60;79.80
58809;DHT22;44579;51.672;7.834;2024-03-23T13:32:03;9.50;80.10
58809;DHT22;44579;51.672;7.834;2024-03-23T13:34:29;9.50;80.20
58809;DHT22;44579;51.672;7.834;2024-03-23T13:36:55;9.70;80.50
58809;DHT22;44579;51.672;7.834;2024-03-23T13:39:24;9.90;80.40
58809;DHT22;44579;51.672;7.834;2024-03-23T13:41:50;10.00;80.40
58809;DHT22;44579;51.672;7.834;2024-03-23T13:44:16;10.20;80.20
58809;DHT22;44579;51.672;7.834;2024-03-23T13:46:42;10.20;79.70
58809;DHT22;44579;51.672;7.834;2024-03-23T13:49:18;10.20;79.60
58809;DHT22;44579;51.672;7.834;2024-03-23T13:51:56;10.20;79.50
58809;DHT22;44579;51.672;7.834;2024-03-23T13:54:23;10.10;79.40
58809;DHT22;44579;51.672;7.834;2024-03-23T13:56:50;10.10;79.50
58809;DHT22;44579;51.672;7.834;2024-03-23T13:59:16;10.20;79.60
58809;DHT22;44579;51.672;7.834;2024-03-23T14:01:43;10.20;79.50
58809;DHT22;44579;51.672;7.834;2024-03-23T14:04:09;10.20;79.40
58809;DHT22;44579;51.672;7.834;2024-03-23T14:06:35;10.10;79.20
58809;DHT22;44579;51.672;7.834;2024-03-23T14:09:01;10.00;79.20
58809;DHT22;44579;51.672;7.834;2024-03-23T14:11:29;9.90;79.00
58809;DHT22;44579;51.672;7.834;2024-03-23T14:13:55;9.90;78.90
58809;DHT22;44579;51.672;7.834;2024-03-23T14:16:21;9.80;78.80
58809;DHT22;44579;51.672;7.834;2024-03-23T14:18:47;9.70;78.50
58809;DHT22;44579;51.672;7.834;2024-03-23T14:21:13;9.70;78.40
58809;DHT22;44579;51.672;7.834;2024-03-23T14:23:39;9.60;78.40
58809;DHT22;44579;51.672;7.834;2024-03-23T14:26:06;9.60;78.40
58809;DHT22;44579;51.672;7.834;2024-03-23T14:28:32;9.70;78.20
58809;DHT22;44579;51.672;7.834;2024-03-23T14:30:59;9.70;78.00
58809;DHT22;44579;51.672;7.834;2024-03-23T14:33:25;9.60;77.50
58809;DHT22;44579;51.672;7.834;2024-03-23T14:35:51;9.60;77.40
58809;DHT22;44579;51.672;7.834;2024-03-23T14:38:19;9.60;77.10
58809;DHT22;44579;51.672;7.834;2024-03-23T14:40:45;9.60;76.90
58809;DHT22;44579;51.672;7.834;2024-03-23T14:43:11;9.60;76.70
58809;DHT22;44579;51.672;7.834;2024-03-23T14:45:37;9.60;76.70
58809;DHT22;44579;51.672;7.834;2024-03-23T14:48:03;9.60;76.80
58809;DHT22;44579;51.672;7.834;2024-03-23T14:50:34;9.50;76.60
58809;DHT22;44579;51.672;7.834;2024-03-23T14:53:00;9.50;76.70
58809;DHT22;44579;51.672;7.834;2024-03-23T14:55:26;9.50;76.80
58809;DHT22;44579;51.672;7.834;2024-03-23T14:57:52;9.70;76.90
58809;DHT22;44579;51.672;7.834;2024-03-23T15:00:18;9.80;76.90
58809;DHT22;44579;51.672;7.834;2024-03-23T15:02:44;10.00;76.90
58809;DHT22;44579;51.672;7.834;2024-03-23T15:05:11;10.00;77.00
58809;DHT22;44579;51.672;7.834;2024-03-23T15:07:37;10.10;77.00
58809;DHT22;44579;51.672;7.834;2024-03-23T15:10:06;10.10;76.90
58809;DHT22;44579;51.672;7.834;2024-03-23T15:12:32;10.00;76.90
58809;DHT22;44579;51.672;7.834;2024-03-23T15:14:59;10.00;77.00
58809;DHT22;44579;51.672;7.834;2024-03-23T15:17:26;9.90;76.80
58809;DHT22;44579;51.672;7.834;2024-03-23T15:19:51;10.00;76.70
58809;DHT22;44579;51.672;7.834;2024-03-23T15:22:19;9.90;76.60
58809;DHT22;44579;51.672;7.834;2024-03-23T15:24:47;9.90;76.60
58809;DHT22;44579;51.672;7.834;2024-03-23T15:27:13;9.90;76.60
58809;DHT22;44579;51.672;7.834;2024-03-23T15:29:39;10.00;76.60
58809;DHT22;44579;51.672;7.834;2024-03-23T15:32:08;10.00;76.40
58809;DHT22;44579;51.672;7.834;2024-03-23T15:34:34;10.00;76.50
58809;DHT22;44579;51.672;7.834;2024-03-23T15:37:00;10.00;76.50
58809;DHT22;44579;51.672;7.834;2024-03-23T15:39:26;10.10;76.40
58809;DHT22;44579;51.672;7.834;2024-03-23T15:41:51;10.10;76.20
58809;DHT22;44579;51.672;7.834;2024-03-23T15:44:19;10.20;77.20
58809;DHT22;44579;51.672;7.834;2024-03-23T15:46:45;10.10;76.20
58809;DHT22;44579;51.672;7.834;2024-03-23T15:49:12;10.10;76.30
58809;DHT22;44579;51.672;7.834;2024-03-23T15:51:37;10.10;76.20
58809;DHT22;44579;51.672;7.834;2024-03-23T15:54:05;10.10;76.20
58809;DHT22;44579;51.672;7.834;2024-03-23T15:56:31;10.10;76.10
58809;DHT22;44579;51.672;7.834;2024-03-23T15:58:57;10.10;76.10
58809;DHT22;44579;51.672;7.834;2024-03-23T16:01:31;10.10;76.00
58809;DHT22;44579;51.672;7.834;2024-03-23T16:03:59;10.00;76.00
58809;DHT22;44579;51.672;7.834;2024-03-23T16:06:25;10.00;75.80
58809;DHT22;44579;51.672;7.834;2024-03-23T16:08:52;10.00;75.70
58809;DHT22;44579;51.672;7.834;2024-03-23T16:11:18;10.10;75.90
58809;DHT22;44579;51.672;7.834;2024-03-23T16:13:44;10.20;75.80
58809;DHT22;44579;51.672;7.834;2024-03-23T16:16:12;10.20;75.80
58809;DHT22;44579;51.672;7.834;2024-03-23T16:18:38;10.20;75.80
58809;DHT22;44579;51.672;7.834;2024-03-23T16:21:07;10.30;75.80
58809;DHT22;44579;51.672;7.834;2024-03-23T16:23:33;10.30;75.80
58809;DHT22;44579;51.672;7.834;2024-03-23T16:25:59;10.30;75.80
58809;DHT22;44579;51.672;7.834;2024-03-23T16:28:27;10.20;75.70
58809;DHT22;44579;51.672;7.834;2024-03-23T16:31:01;10.10;75.70
58809;DHT22;44579;51.672;7.834;2024-03-23T16:33:27;10.10;75.80
58809;DHT22;44579;51.672;7.834;2024-03-23T16:35:57;10.10;75.90
58809;DHT22;44579;51.672;7.834;2024-03-23T16:38:24;10.00;75.90
58809;DHT22;44579;51.672;7.834;2024-03-23T16:40:56;9.90;75.90